Time;durP1;ratioP1;P1;durP2;ratioP2;P2;SDS_P1;SDS_P2;PMS_P1;PMS_P2;Temp;Humidity;BMP_temperature;BMP_pressure;BME280_temperature;BME280_humidity;BME280_pressure;Samples;Min_cycle;Max_cycle;Signal;HPM_P1;HPM_P2
2021/12/25 00:00:27;;;;;;;7.80;7.30;;;10.60;62.60;;;;;;20299;6930;281192;-84
2021/12/25 00:02:52;;;;;;;5.50;5.10;;;10.70;63.30;;;;;;20486;6930;117703;-82
2021/12/25 00:05:18;;;;;;;6.47;5.97;;;10.70;62.90;;;;;;20239;6930;324711;-83
2021/12/25 00:07:44;;;;;;;5.95;5.55;;;11.00;62.90;;;;;;20250;6930;342763;-83
2021/12/25 00:10:09;;;;;;;5.50;5.20;;;11.00;62.80;;;;;;20236;6930;340333;-82
2021/12/25 00:12:35;;;;;;;6.10;5.60;;;11.30;62.20;;;;;;20244;6930;343448;-83
2021/12/25 00:15:24;;;;;;;5.60;5.20;;;11.40;61.50;;;;;;20436;6930;118024;-83
2021/12/25 00:17:56;;;;;;;6.00;5.60;;;11.30;61.50;;;;;;20443;6801;307987;-82
2021/12/25 00:20:32;;;;;;;6.40;6.00;;;11.40;61.20;;;;;;20499;6808;312358;-82
2021/12/25 00:23:08;;;;;;;6.10;5.70;;;11.40;61.20;;;;;;20380;6812;310414;-82
2021/12/25 00:25:49;;;;;;;6.50;5.97;;;11.60;60.80;;;;;;20411;6796;311484;-83
2021/12/25 00:31:20;;;;;;;6.50;6.03;;;11.50;60.40;;;;;;19381;7144;322188;-82
2021/12/25 00:36:19;;;;;;;5.40;5.00;;;10.90;61.90;;;;;;20575;6792;117741;-86
2021/12/25 00:38:55;;;;;;;6.57;6.07;;;10.90;61.90;;;;;;20533;6794;307364;-83
2021/12/25 00:41:30;;;;;;;5.70;4.90;;;11.00;62.50;;;;;;20673;6797;117703;-82
2021/12/25 00:44:06;;;;;;;4.93;4.53;;;10.90;62.30;;;;;;20640;6813;117373;-83
2021/12/25 00:46:42;;;;;;;5.70;5.20;;;10.70;62.70;;;;;;20440;6832;117944;-82
2021/12/25 00:49:17;;;;;;;4.83;4.43;;;10.50;63.20;;;;;;20571;6830;121049;-82
2021/12/25 00:51:53;;;;;;;5.40;5.07;;;10.30;63.50;;;;;;20468;6795;310521;-85
2021/12/25 00:54:28;;;;;;;4.90;4.60;;;10.50;64.00;;;;;;20705;6795;117268;-83
2021/12/25 00:57:04;;;;;;;6.10;5.55;;;10.50;63.40;;;;;;20464;6797;278588;-85
2021/12/25 00:59:40;;;;;;;4.97;4.57;;;10.70;63.10;;;;;;20655;6812;117228;-82
2021/12/25 01:02:16;;;;;;;5.55;5.15;;;10.70;63.10;;;;;;20384;6829;307806;-81
2021/12/25 01:04:52;;;;;;;4.90;4.60;;;10.90;63.40;;;;;;20408;6814;310602;-82
2021/12/25 01:07:27;;;;;;;4.90;4.60;;;11.10;62.40;;;;;;20596;6816;128473;-82
2021/12/25 01:10:03;;;;;;;4.90;4.50;;;11.00;62.00;;;;;;20711;6782;117632;-83
2021/12/25 01:12:55;;;;;;;5.07;4.73;;;10.80;62.50;;;;;;20310;6829;318164;-82
2021/12/25 01:15:21;;;;;;;5.30;4.90;;;10.90;62.80;;;;;;20344;6872;310895;-83
2021/12/25 01:18:50;;;;;;;5.50;5.10;;;11.10;62.00;;;;;;20499;6806;338598;-82
2021/12/25 01:26:54;;;;;;;6.50;6.00;;;11.30;60.70;;;;;;20252;6857;283004;-82
2021/12/25 01:36:26;;;;;;;5.37;4.97;;;10.70;61.90;;;;;;20647;6817;117447;-83
2021/12/25 01:37:35;;;;;;;6.67;6.13;;;10.20;63.70;;;;;;20194;6840;120034;-82
2021/12/25 01:48:01;;;;;;;8.50;7.90;;;10.10;63.30;;;;;;19418;7160;295740;-83
2021/12/25 01:50:37;;;;;;;8.70;7.80;;;10.30;64.00;;;;;;20044;6867;308360;-88
2021/12/25 01:53:12;;;;;;;9.17;8.20;;;10.60;63.40;;;;;;20432;6796;297464;-82
2021/12/25 01:55:48;;;;;;;9.70;6.67;;;10.90;62.80;;;;;;20614;6794;118600;-83
2021/12/25 01:58:23;;;;;;;7.63;6.93;;;10.70;62.50;;;;;;20631;6810;116607;-83
2021/12/25 02:00:59;;;;;;;9.40;8.43;;;10.40;63.10;;;;;;20442;6822;339179;-82
2021/12/25 02:03:36;;;;;;;9.67;6.73;;;10.50;63.80;;;;;;20706;6795;117474;-83
2021/12/25 02:06:11;;;;;;;8.43;7.40;;;10.40;63.40;;;;;;20619;6793;117666;-82
2021/12/25 02:08:46;;;;;;;10.77;7.20;;;10.20;63.80;;;;;;20711;6781;118441;-83
2021/12/25 02:11:21;;;;;;;11.53;10.33;;;9.90;65.20;;;;;;20465;6796;311735;-82
2021/12/25 02:13:58;;;;;;;9.73;8.50;;;10.10;65.00;;;;;;20648;6814;118610;-82
2021/12/25 02:16:49;;;;;;;15.40;10.73;;;10.10;64.50;;;;;;20355;6812;337461;-84
2021/12/25 02:19:14;;;;;;;13.62;10.60;;;10.20;64.60;;;;;;20402;6867;308925;-83
2021/12/25 02:21:44;;;;;;;11.33;10.07;;;10.50;63.90;;;;;;20457;6808;311413;-86
2021/12/25 02:24:19;;;;;;;10.47;9.40;;;10.70;63.10;;;;;;20465;6797;305952;-82
2021/12/25 02:26:55;;;;;;;10.97;7.97;;;10.90;62.80;;;;;;20447;6825;118075;-82
2021/12/25 02:29:30;;;;;;;8.73;7.03;;;10.70;62.60;;;;;;20626;6810;117619;-82
2021/12/25 02:32:06;;;;;;;6.90;5.83;;;10.40;63.50;;;;;;20719;6789;122091;-82
2021/12/25 02:34:41;;;;;;;7.20;6.00;;;10.10;64.20;;;;;;20741;6792;118259;-81
2021/12/25 02:37:17;;;;;;;7.37;6.60;;;9.90;65.90;;;;;;20712;6789;146429;-82
2021/12/25 02:39:53;;;;;;;7.33;6.60;;;9.60;66.90;;;;;;20695;6792;117091;-82
2021/12/25 02:42:32;;;;;;;10.73;8.80;;;9.60;66.80;;;;;;20513;6789;338298;-82
2021/12/25 02:45:05;;;;;;;8.27;7.53;;;9.80;67.50;;;;;;20576;6819;121677;-82
2021/12/25 02:47:44;;;;;;;13.20;10.10;;;10.00;66.10;;;;;;20404;6819;336257;-82
2021/12/25 02:50:29;;;;;;;233.20;20.27;;;10.00;65.90;;;;;;20578;6836;118057;-82
2021/12/25 02:53:05;;;;;;;207.63;14.70;;;10.00;65.20;;;;;;20562;6819;123797;-82
2021/12/25 02:55:40;;;;;;;129.35;18.52;;;9.80;66.40;;;;;;20354;6819;344691;-82
2021/12/25 02:58:19;;;;;;;31.17;11.53;;;9.90;66.30;;;;;;20732;6785;118072;-82
2021/12/25 03:00:51;;;;;;;16.23;9.80;;;9.90;66.00;;;;;;20670;6800;119678;-82
2021/12/25 03:03:27;;;;;;;13.20;8.90;;;9.70;66.30;;;;;;20715;6792;121684;-83
2021/12/25 03:06:02;;;;;;;20.88;14.10;;;9.60;66.70;;;;;;20490;6776;337549;-85
2021/12/25 03:08:38;;;;;;;14.48;12.68;;;9.70;67.00;;;;;;20493;6791;309192;-82
2021/12/25 03:11:14;;;;;;;13.63;10.43;;;10.10;65.30;;;;;;20679;6791;117488;-82
2021/12/25 03:13:59;;;;;;;12.50;9.20;;;10.00;64.50;;;;;;20706;6791;117924;-82
2021/12/25 03:16:32;;;;;;;12.50;9.60;;;9.80;65.90;;;;;;20578;6784;117516;-82
2021/12/25 03:19:15;;;;;;;17.40;13.15;;;9.60;66.50;;;;;;20420;6812;340058;-82
2021/12/25 03:21:43;;;;;;;31.45;16.85;;;9.80;67.10;;;;;;20423;6812;308946;-82
2021/12/25 03:24:42;;;;;;;21.33;12.33;;;10.10;65.20;;;;;;20691;6799;118025;-82
2021/12/25 03:27:14;;;;;;;32.43;12.10;;;10.10;64.70;;;;;;20625;6810;118276;-82
2021/12/25 03:29:50;;;;;;;93.43;14.10;;;9.80;66.20;;;;;;20630;6814;121895;-82
2021/12/25 03:32:25;;;;;;;78.10;16.08;;;9.60;66.80;;;;;;20454;6800;323060;-82
2021/12/25 03:35:01;;;;;;;115.60;19.42;;;9.80;66.90;;;;;;20395;6809;309049;-82
2021/12/25 03:37:40;;;;;;;63.27;14.33;;;10.10;64.80;;;;;;20784;6780;117405;-83
2021/12/25 03:40:15;;;;;;;75.17;14.73;;;10.10;64.20;;;;;;20747;6792;117764;-82
2021/12/25 03:42:47;;;;;;;18.63;11.80;;;9.90;65.70;;;;;;20659;6807;118270;-82
2021/12/25 03:45:23;;;;;;;57.05;19.35;;;9.70;66.40;;;;;;20423;6792;311247;-81
2021/12/25 03:48:10;;;;;;;22.70;16.37;;;9.80;66.50;;;;;;20512;6792;315402;-82
2021/12/25 03:57:38;;;;;;;16.13;11.03;;;10.20;63.20;;;;;;20733;6791;117932;-90
2021/12/25 03:59:21;;;;;;;20.33;15.02;;;10.30;63.80;;;;;;20464;6794;342108;-82
2021/12/25 04:02:02;;;;;;;14.37;11.03;;;10.50;63.50;;;;;;20753;6792;117762;-82
2021/12/25 04:04:36;;;;;;;12.47;9.90;;;10.40;63.10;;;;;;20673;6807;118100;-82
2021/12/25 04:10:04;;;;;;;12.40;9.47;;;9.80;65.60;;;;;;20703;6792;118060;-82
2021/12/25 04:12:39;;;;;;;13.30;11.20;;;9.60;66.40;;;;;;20496;6792;335868;-86
2021/12/25 04:15:14;;;;;;;13.98;12.55;;;9.70;67.30;;;;;;20472;6777;302163;-82
2021/12/25 04:17:50;;;;;;;16.00;13.07;;;10.10;65.70;;;;;;20539;6791;280937;-83
2021/12/25 04:20:27;;;;;;;17.43;13.80;;;10.70;63.20;;;;;;20534;6791;302680;-87
2021/12/25 04:23:06;;;;;;;12.07;10.40;;;10.60;63.10;;;;;;20737;6791;118151;-82
2021/12/25 04:25:37;;;;;;;12.07;10.17;;;10.50;62.90;;;;;;20632;6791;118076;-83
2021/12/25 04:28:30;;;;;;;12.43;10.20;;;10.10;63.60;;;;;;20709;6791;118086;-81
2021/12/25 04:31:10;;;;;;;11.97;9.47;;;9.80;65.40;;;;;;20689;6848;121756;-82
2021/12/25 05:05:04;;;;;;;20.33;10.90;;;9.60;65.80;;;;;;19902;6863;119703;-82
2021/12/25 05:07:46;;;;;;;26.85;16.17;;;9.40;66.60;;;;;;20494;6792;279301;-82
2021/12/25 05:10:12;;;;;;;18.83;12.60;;;9.60;66.80;;;;;;20663;6810;117779;-82
2021/12/25 05:12:53;;;;;;;14.97;12.10;;;9.50;66.20;;;;;;20711;6792;117461;-82
2021/12/25 05:15:23;;;;;;;28.07;16.17;;;9.40;66.60;;;;;;20412;6806;340492;-82
2021/12/25 05:18:05;;;;;;;18.70;12.23;;;9.50;66.70;;;;;;20718;6792;117728;-82
2021/12/25 05:20:34;;;;;;;19.60;15.50;;;9.50;66.30;;;;;;20499;6792;336538;-83
2021/12/25 05:23:10;;;;;;;18.30;12.10;;;9.70;66.40;;;;;;20673;6806;120492;-82
2021/12/25 05:25:51;;;;;;;16.83;12.07;;;9.70;65.80;;;;;;20618;6806;118342;-82
2021/12/25 05:28:26;;;;;;;18.03;11.70;;;9.40;66.10;;;;;;20685;6806;118075;-83
2021/12/25 05:31:00;;;;;;;17.53;11.33;;;9.30;66.70;;;;;;20676;6806;118232;-82
2021/12/25 05:33:36;;;;;;;18.40;11.60;;;9.10;67.10;;;;;;20750;6791;116882;-82
2021/12/25 05:36:11;;;;;;;32.67;17.95;;;9.00;67.60;;;;;;20423;6777;311610;-82
2021/12/25 05:38:47;;;;;;;26.05;17.87;;;9.20;67.80;;;;;;20504;6806;279696;-82
2021/12/25 05:41:26;;;;;;;42.23;20.80;;;9.90;65.60;;;;;;20526;6791;278981;-83
2021/12/25 05:44:02;;;;;;;31.03;15.90;;;9.90;65.50;;;;;;20749;6791;117024;-83
2021/12/25 05:46:38;;;;;;;24.60;13.90;;;9.80;65.10;;;;;;20617;6791;119280;-82
2021/12/25 05:49:13;;;;;;;34.87;14.10;;;9.50;65.80;;;;;;20692;6792;117762;-83
2021/12/25 05:51:52;;;;;;;16.97;12.37;;;9.30;66.60;;;;;;20743;6791;117551;-82
2021/12/25 05:54:24;;;;;;;20.67;12.70;;;9.10;67.00;;;;;;20755;6791;117376;-83
2021/12/25 05:57:00;;;;;;;28.33;18.77;;;9.00;67.50;;;;;;20283;6866;314691;-83
2021/12/25 05:59:35;;;;;;;28.00;19.50;;;9.20;67.50;;;;;;20434;6810;308975;-83
2021/12/25 06:02:12;;;;;;;27.83;16.07;;;9.50;66.20;;;;;;20671;6806;117738;-83
2021/12/25 06:04:47;;;;;;;33.35;19.73;;;9.50;65.60;;;;;;20411;6822;344608;-83
2021/12/25 06:07:22;;;;;;;26.80;15.40;;;9.60;65.70;;;;;;20690;6794;117597;-83
2021/12/25 06:09:58;;;;;;;22.63;14.13;;;9.50;65.50;;;;;;20676;6807;118116;-83
2021/12/25 06:12:36;;;;;;;32.03;20.23;;;9.30;66.00;;;;;;20532;6792;286549;-83
2021/12/25 06:15:09;;;;;;;37.85;21.17;;;9.40;66.20;;;;;;20423;6806;312172;-82
2021/12/25 06:17:44;;;;;;;32.27;16.07;;;9.70;65.20;;;;;;20658;6809;117853;-82
2021/12/25 06:20:20;;;;;;;35.20;20.77;;;9.60;65.00;;;;;;20444;6806;342592;-82
2021/12/25 06:22:56;;;;;;;24.00;15.23;;;9.70;65.20;;;;;;20673;6807;124002;-81
2021/12/25 06:25:33;;;;;;;34.00;20.80;;;9.60;65.00;;;;;;20456;6792;331310;-82
2021/12/25 06:28:08;;;;;;;30.83;20.10;;;9.60;65.20;;;;;;20536;6794;310813;-82
2021/12/25 06:30:45;;;;;;;40.77;22.00;;;9.80;64.20;;;;;;20489;6794;286407;-82
2021/12/25 06:33:20;;;;;;;34.15;21.67;;;10.00;62.30;;;;;;20460;6794;320479;-82
2021/12/25 06:35:56;;;;;;;29.55;20.30;;;10.30;61.60;;;;;;20384;6794;311155;-82
2021/12/25 06:38:33;;;;;;;30.17;16.37;;;10.00;61.60;;;;;;20706;6794;117514;-83
2021/12/25 06:41:09;;;;;;;28.00;19.30;;;10.00;61.60;;;;;;20458;6794;308187;-83
2021/12/25 06:43:43;;;;;;;25.73;19.10;;;9.90;63.20;;;;;;20507;6794;308314;-83
2021/12/25 06:46:19;;;;;;;18.77;13.57;;;10.00;62.00;;;;;;20536;6806;117835;-83
2021/12/25 06:48:55;;;;;;;21.27;17.37;;;9.80;63.00;;;;;;20464;6806;337801;-82
2021/12/25 06:51:34;;;;;;;17.30;13.17;;;9.80;64.20;;;;;;20512;6784;117563;-82
2021/12/25 06:54:06;;;;;;;16.43;11.90;;;9.60;64.00;;;;;;20640;6799;119792;-82
2021/12/25 06:56:43;;;;;;;17.20;10.57;;;9.30;64.80;;;;;;20534;6799;118422;-82
2021/12/25 06:59:17;;;;;;;11.17;9.60;;;9.10;65.60;;;;;;20637;6814;117803;-84
2021/12/25 07:01:52;;;;;;;13.02;10.93;;;8.90;66.40;;;;;;20494;6789;333770;-83
2021/12/25 07:04:29;;;;;;;15.75;12.15;;;9.40;66.70;;;;;;20491;6792;279283;-83
2021/12/25 07:07:04;;;;;;;13.03;11.73;;;9.40;66.70;;;;;;20323;6883;279748;-83
2021/12/25 07:09:41;;;;;;;13.67;12.20;;;10.00;64.00;;;;;;20519;6780;334618;-83
2021/12/25 07:12:16;;;;;;;10.67;9.33;;;10.00;63.90;;;;;;20685;6810;118657;-82
2021/12/25 07:14:52;;;;;;;11.38;10.27;;;9.90;64.60;;;;;;20513;6782;336446;-83
2021/12/25 07:17:28;;;;;;;11.18;10.23;;;10.10;63.70;;;;;;20435;6812;308452;-82
2021/12/25 07:20:04;;;;;;;10.13;8.20;;;10.00;63.90;;;;;;20698;6795;117787;-86
2021/12/25 07:22:40;;;;;;;11.73;10.73;;;9.90;64.70;;;;;;20498;6795;278905;-83
2021/12/25 07:25:15;;;;;;;12.80;11.50;;;9.90;65.10;;;;;;20434;6785;343812;-83
2021/12/25 07:27:51;;;;;;;12.90;11.60;;;10.30;62.80;;;;;;20473;6797;306840;-84
2021/12/25 07:30:27;;;;;;;12.53;11.00;;;10.30;62.80;;;;;;20522;6788;306830;-83
2021/12/25 07:33:03;;;;;;;9.60;8.43;;;10.40;62.20;;;;;;20738;6788;117734;-81
2021/12/25 07:35:39;;;;;;;10.27;9.35;;;10.20;63.30;;;;;;20433;6788;340021;-88
2021/12/25 07:38:18;;;;;;;8.70;7.53;;;10.20;63.30;;;;;;20734;6788;118399;-84
2021/12/25 07:40:50;;;;;;;7.13;6.47;;;10.10;63.40;;;;;;20716;6788;117233;-84
2021/12/25 07:43:26;;;;;;;9.48;8.70;;;9.80;65.10;;;;;;20504;6788;346340;-83
2021/12/25 07:46:01;;;;;;;8.40;7.67;;;9.90;65.70;;;;;;20537;6803;117680;-84
2021/12/25 07:48:37;;;;;;;10.25;9.35;;;9.80;65.40;;;;;;20489;6796;280320;-82
2021/12/25 07:51:12;;;;;;;7.90;7.10;;;10.00;64.60;;;;;;20697;6787;117382;-83
2021/12/25 07:53:49;;;;;;;10.33;9.33;;;9.90;65.20;;;;;;20460;6803;311121;-84
2021/12/25 07:56:26;;;;;;;10.15;9.23;;;10.00;64.50;;;;;;20383;6788;340899;-83
2021/12/25 07:58:59;;;;;;;10.33;9.40;;;10.30;64.00;;;;;;20516;6803;281067;-83
2021/12/25 08:01:45;;;;;;;;;;;;;;;;;;;;;
2021/12/25 08:04:10;;;;;;;8.80;7.73;;;10.60;62.60;;;;;;20553;6788;117439;-83
2021/12/25 08:06:46;;;;;;;10.82;9.73;;;10.50;62.80;;;;;;20379;6781;343246;-85
2021/12/25 08:09:28;;;;;;;7.93;7.17;;;10.50;63.00;;;;;;20751;6776;117985;-83
2021/12/25 08:11:57;;;;;;;9.73;8.93;;;10.30;63.10;;;;;;20509;6791;339504;-84
2021/12/25 08:14:33;;;;;;;10.10;9.20;;;10.40;63.50;;;;;;20523;6791;278324;-83
2021/12/25 08:17:08;;;;;;;9.80;9.00;;;10.60;62.70;;;;;;20537;6791;307905;-84
2021/12/25 08:19:44;;;;;;;9.50;8.70;;;10.70;62.00;;;;;;20518;6791;278057;-85
2021/12/25 08:22:19;;;;;;;9.03;8.23;;;10.90;61.50;;;;;;20527;6791;338053;-84
2021/12/25 08:24:56;;;;;;;7.07;6.47;;;10.70;61.50;;;;;;20769;6776;117766;-85
2021/12/25 08:27:31;;;;;;;6.47;5.97;;;10.70;61.30;;;;;;20751;6791;117733;-85
2021/12/25 08:30:08;;;;;;;7.17;6.47;;;10.40;62.20;;;;;;20738;6791;117425;-86
2021/12/25 08:32:42;;;;;;;6.47;5.97;;;10.10;63.10;;;;;;20751;6791;118436;-89
2021/12/25 08:35:19;;;;;;;8.10;7.40;;;9.90;64.90;;;;;;20472;6791;311402;-85
2021/12/25 08:37:53;;;;;;;8.20;7.40;;;10.00;64.70;;;;;;20581;6776;277853;-87
2021/12/25 08:40:29;;;;;;;8.90;8.10;;;10.30;64.10;;;;;;20571;6776;281039;-85
2021/12/25 08:43:05;;;;;;;8.00;7.40;;;10.60;63.40;;;;;;20542;6776;307246;-86
2021/12/25 08:45:49;;;;;;;7.93;6.87;;;10.80;62.70;;;;;;20648;6791;117885;-87
2021/12/25 08:48:22;;;;;;;7.80;7.10;;;10.60;62.60;;;;;;20728;6791;117370;-88
2021/12/25 08:50:58;;;;;;;6.77;5.50;;;10.30;63.50;;;;;;20799;6791;116470;-89
2021/12/25 08:53:36;;;;;;;6.60;6.00;;;10.00;64.30;;;;;;20716;6803;117536;-89
2021/12/25 08:56:09;;;;;;;8.65;7.85;;;9.90;66.20;;;;;;20419;6788;344300;-89
2021/12/25 08:58:44;;;;;;;8.65;7.78;;;10.00;66.00;;;;;;20535;6788;308743;-85
2021/12/25 09:01:20;;;;;;;7.80;7.10;;;10.40;65.30;;;;;;20758;6788;116707;-88
2021/12/25 09:03:56;;;;;;;7.77;6.97;;;10.40;64.70;;;;;;20712;6803;117870;-88
2021/12/25 09:06:31;;;;;;;7.13;6.50;;;10.30;65.30;;;;;;20561;6804;117705;-86
2021/12/25 09:09:07;;;;;;;7.57;6.83;;;10.10;65.90;;;;;;20756;6776;117829;-86
2021/12/25 09:11:47;;;;;;;6.80;6.20;;;10.00;66.40;;;;;;20717;6788;117486;-87
2021/12/25 09:14:29;;;;;;;8.50;7.10;;;9.80;68.00;;;;;;20722;6791;67914;-88
2021/12/25 09:17:04;;;;;;;9.10;8.20;;;9.80;68.00;;;;;;20447;6874;117955;-86
2021/12/25 09:19:40;;;;;;;10.23;8.50;;;9.80;68.20;;;;;;20759;6777;119932;-86
2021/12/25 09:22:19;;;;;;;14.10;11.18;;;9.70;68.30;;;;;;20492;6796;338343;-89
2021/12/25 09:24:51;;;;;;;12.43;11.07;;;10.00;67.30;;;;;;20695;6796;116748;-87
2021/12/25 09:27:27;;;;;;;13.30;10.57;;;10.00;66.50;;;;;;20748;6777;119254;-87
2021/12/25 09:30:03;;;;;;;12.23;9.60;;;10.00;66.50;;;;;;20722;6792;121071;-88
2021/12/25 09:32:39;;;;;;;14.73;11.17;;;9.90;67.80;;;;;;20736;6788;120684;-87
2021/12/25 09:35:14;;;;;;;13.77;9.83;;;9.80;68.10;;;;;;20653;6803;125996;-86
2021/12/25 09:37:50;;;;;;;14.48;13.10;;;9.70;68.90;;;;;;20524;6788;337904;-87
2021/12/25 09:40:25;;;;;;;12.83;11.03;;;10.00;67.10;;;;;;20780;6788;120896;-89
2021/12/25 09:43:01;;;;;;;13.40;9.73;;;10.10;66.80;;;;;;20798;6773;118149;-86
2021/12/25 09:45:37;;;;;;;12.70;11.40;;;10.00;66.50;;;;;;20664;6788;118063;-86
2021/12/25 09:48:13;;;;;;;14.40;12.30;;;10.10;66.60;;;;;;20482;6803;323066;-86
2021/12/25 09:50:48;;;;;;;11.70;10.50;;;10.10;66.60;;;;;;20732;6788;118145;-86
2021/12/25 09:53:25;;;;;;;9.20;8.30;;;10.20;66.00;;;;;;20676;6789;120084;-88
2021/12/25 09:56:01;;;;;;;13.03;10.37;;;10.10;66.20;;;;;;20591;6803;118085;-86
2021/12/25 09:58:38;;;;;;;12.95;11.55;;;10.00;66.70;;;;;;20432;6803;347403;-86
2021/12/25 10:01:11;;;;;;;9.33;8.07;;;10.30;66.20;;;;;;20747;6773;127555;-86
2021/12/25 10:03:47;;;;;;;9.43;8.43;;;10.30;66.80;;;;;;20674;6803;120710;-88
2021/12/25 10:06:28;;;;;;;9.98;8.98;;;10.20;66.50;;;;;;20394;6773;310043;-89
2021/12/25 10:09:18;;;;;;;10.10;9.20;;;10.30;66.50;;;;;;20549;6788;308392;-87
2021/12/25 10:12:08;;;;;;;14.53;12.97;;;11.10;64.10;;;;;;20470;6803;312722;-87
2021/12/25 10:14:42;;;;;;;12.63;10.70;;;11.10;64.10;;;;;;20674;6804;117718;-86
2021/12/25 10:17:18;;;;;;;17.25;15.20;;;11.00;64.00;;;;;;20510;6790;337452;-85
2021/12/25 10:20:00;;;;;;;9.67;8.07;;;11.10;64.20;;;;;;20743;6803;122578;-85
2021/12/25 10:22:57;;;;;;;14.90;12.83;;;11.10;63.90;;;;;;20525;6788;308675;-84
2021/12/25 10:25:35;;;;;;;14.70;13.00;;;11.10;64.10;;;;;;20379;6805;311878;-86
2021/12/25 10:28:07;;;;;;;10.37;9.30;;;11.40;63.10;;;;;;20686;6803;117789;-88
2021/12/25 10:30:49;;;;;;;11.30;10.03;;;11.30;63.10;;;;;;20807;6788;68844;-87
2021/12/25 10:33:35;;;;;;;9.70;8.80;;;11.00;63.80;;;;;;20491;6859;120278;-84
2021/12/25 10:36:24;;;;;;;9.07;8.23;;;10.50;65.30;;;;;;20556;6802;116889;-84
2021/12/25 10:39:06;;;;;;;12.15;10.95;;;10.50;65.30;;;;;;20487;6802;279198;-88
2021/12/25 10:41:52;;;;;;;12.13;11.02;;;10.70;65.00;;;;;;20487;6802;312233;-86
2021/12/25 10:44:27;;;;;;;12.50;11.30;;;11.10;64.00;;;;;;20415;6877;309484;-87
2021/12/25 10:47:06;;;;;;;12.95;11.57;;;11.40;62.70;;;;;;20239;6877;344794;-87
2021/12/25 10:49:38;;;;;;;12.50;11.30;;;11.60;61.90;;;;;;20440;6817;309639;-86
2021/12/25 10:52:20;;;;;;;11.27;10.18;;;11.80;61.40;;;;;;20432;6817;280418;-86
2021/12/25 10:54:56;;;;;;;6.83;6.33;;;11.90;60.80;;;;;;20456;6803;281739;-86
2021/12/25 10:57:39;;;;;;;7.33;6.63;;;12.00;60.30;;;;;;20724;6787;117376;-90
2021/12/25 11:00:20;;;;;;;7.67;6.67;;;11.90;60.90;;;;;;20658;6806;121167;-88
2021/12/25 11:03:03;;;;;;;6.17;5.57;;;11.50;61.80;;;;;;20631;6859;117432;-87
2021/12/25 11:05:44;;;;;;;7.10;6.60;;;11.20;62.70;;;;;;20440;6788;285939;-86
2021/12/25 11:08:20;;;;;;;7.27;6.77;;;11.30;62.20;;;;;;20480;6788;279135;-87
2021/12/25 11:10:55;;;;;;;6.80;6.20;;;11.60;61.10;;;;;;20670;6803;117539;-85
2021/12/25 11:13:48;;;;;;;7.40;6.85;;;11.70;60.70;;;;;;20500;6788;341529;-88
2021/12/25 11:16:27;;;;;;;6.60;6.10;;;11.70;60.70;;;;;;20609;6788;117604;-84
2021/12/25 11:19:08;;;;;;;7.00;6.30;;;11.70;60.90;;;;;;20539;6788;281922;-85
2021/12/25 11:21:45;;;;;;;6.70;6.20;;;11.80;60.50;;;;;;20782;6788;117875;-86
2021/12/25 11:24:26;;;;;;;7.13;6.47;;;11.70;60.50;;;;;;20693;6803;117573;-88
2021/12/25 11:27:03;;;;;;;7.30;6.82;;;11.50;61.10;;;;;;20337;6862;315572;-85
2021/12/25 11:29:38;;;;;;;6.60;6.13;;;11.70;60.90;;;;;;20750;6796;117565;-83
2021/12/25 11:32:13;;;;;;;7.62;7.03;;;11.70;60.90;;;;;;20534;6781;338269;-84
2021/12/25 11:34:49;;;;;;;6.90;6.40;;;11.80;60.50;;;;;;20691;6795;117383;-85
2021/12/25 11:37:28;;;;;;;7.60;7.00;;;11.90;60.60;;;;;;20575;6781;338219;-86
2021/12/25 11:40:03;;;;;;;7.20;6.70;;;12.00;60.10;;;;;;20527;6788;307637;-87
2021/12/25 11:42:42;;;;;;;7.43;6.85;;;12.30;59.40;;;;;;20531;6788;340247;-84
2021/12/25 11:45:15;;;;;;;6.57;6.07;;;12.60;58.60;;;;;;20716;6788;121192;-86
2021/12/25 11:47:51;;;;;;;5.63;5.23;;;12.30;59.40;;;;;;20717;6791;117297;-87
2021/12/25 11:50:34;;;;;;;7.10;6.60;;;12.20;59.30;;;;;;20507;6788;304416;-87
2021/12/25 11:53:39;;;;;;;8.43;5.80;;;12.20;59.50;;;;;;20733;6788;117736;-87
2021/12/25 11:56:26;;;;;;;6.95;6.55;;;12.20;59.50;;;;;;20265;6859;342852;-85
2021/12/25 11:58:52;;;;;;;6.83;6.43;;;12.40;59.30;;;;;;20489;6844;308583;-87
2021/12/25 12:01:33;;;;;;;7.00;6.50;;;12.60;58.70;;;;;;20485;6788;308297;-84
2021/12/25 12:04:12;;;;;;;7.10;6.63;;;12.80;58.20;;;;;;20550;6773;310171;-86
2021/12/25 12:06:47;;;;;;;6.57;6.17;;;12.90;57.40;;;;;;20304;6803;290920;-85
2021/12/25 12:09:32;;;;;;;7.25;6.57;;;13.10;57.40;;;;;;20510;6789;277801;-83
2021/12/25 12:12:09;;;;;;;7.03;6.43;;;13.10;56.90;;;;;;20555;6830;340469;-87
2021/12/25 12:14:44;;;;;;;6.65;6.15;;;13.30;56.40;;;;;;20547;6773;278141;-82
2021/12/25 12:17:20;;;;;;;6.97;6.40;;;13.20;56.40;;;;;;20753;6773;127065;-87
2021/12/25 12:19:56;;;;;;;6.93;6.43;;;13.00;56.90;;;;;;20558;6773;336862;-86
2021/12/25 12:22:58;;;;;;;6.50;5.90;;;12.90;57.20;;;;;;20473;6803;280117;-90
2021/12/25 12:25:59;;;;;;;6.43;5.60;;;13.00;56.80;;;;;;20649;6788;120758;-85
2021/12/25 12:28:06;;;;;;;7.37;6.80;;;12.70;58.40;;;;;;20422;6860;312104;-87
2021/12/25 12:30:48;;;;;;;7.87;6.47;;;12.70;57.90;;;;;;20732;6788;117669;-87
2021/12/25 12:33:23;;;;;;;5.80;5.40;;;12.50;58.20;;;;;;20718;6788;117767;-85
2021/12/25 12:35:59;;;;;;;6.57;6.00;;;12.20;59.00;;;;;;20660;6777;118085;-86
2021/12/25 12:38:48;;;;;;;7.47;6.57;;;12.00;59.90;;;;;;20725;6788;117816;-86
2021/12/25 12:41:25;;;;;;;7.73;7.13;;;11.80;60.50;;;;;;20700;6788;117465;-87
2021/12/25 12:44:12;;;;;;;6.57;6.07;;;11.60;60.90;;;;;;20690;6803;118134;-88
2021/12/25 12:46:47;;;;;;;7.37;6.80;;;11.50;61.40;;;;;;20427;6788;340716;-89
2021/12/25 12:49:24;;;;;;;6.90;6.20;;;11.80;61.10;;;;;;20663;6803;118403;-86
2021/12/25 12:52:19;;;;;;;7.90;7.20;;;11.80;60.90;;;;;;20527;6788;298991;-85
2021/12/25 12:54:57;;;;;;;6.60;6.20;;;12.00;60.50;;;;;;20777;6784;117264;-89
2021/12/25 12:57:43;;;;;;;7.20;6.70;;;12.00;60.50;;;;;;20549;6784;308177;-89
2021/12/25 13:00:19;;;;;;;6.63;6.17;;;12.10;60.10;;;;;;20794;6784;117300;-86
2021/12/25 13:02:54;;;;;;;6.00;5.60;;;12.20;60.30;;;;;;20745;6784;117733;-84
2021/12/25 13:05:36;;;;;;;7.35;6.85;;;11.90;60.70;;;;;;20443;6784;344788;-83
2021/12/25 13:08:11;;;;;;;6.30;5.80;;;12.10;60.40;;;;;;20749;6784;116346;-82
2021/12/25 13:11:01;;;;;;;6.77;6.07;;;12.10;60.40;;;;;;20726;6784;116626;-82
2021/12/25 13:13:28;;;;;;;7.37;6.87;;;11.90;60.80;;;;;;20705;6784;119729;-83
2021/12/25 13:16:07;;;;;;;8.50;7.70;;;11.70;61.30;;;;;;20418;6784;341377;-82
2021/12/25 13:18:43;;;;;;;7.30;6.70;;;11.90;61.20;;;;;;20739;6784;118292;-82
2021/12/25 13:21:25;;;;;;;7.50;6.80;;;11.90;61.10;;;;;;20705;6784;117523;-82
2021/12/25 13:24:15;;;;;;;6.53;6.03;;;11.70;61.50;;;;;;20705;6799;118245;-82
2021/12/25 13:26:48;;;;;;;8.23;7.62;;;11.60;62.00;;;;;;20398;6788;310294;-82
2021/12/25 13:29:21;;;;;;;7.17;6.67;;;11.80;62.50;;;;;;20680;6799;119673;-82
2021/12/25 13:31:56;;;;;;;6.80;6.30;;;11.80;62.10;;;;;;20750;6788;120484;-82
2021/12/25 13:34:33;;;;;;;7.07;6.47;;;11.50;62.80;;;;;;20741;6788;116408;-83
2021/12/25 13:37:13;;;;;;;6.83;6.20;;;11.50;62.80;;;;;;20495;6860;117838;-82
2021/12/25 13:39:44;;;;;;;7.55;6.95;;;11.30;63.10;;;;;;20513;6788;311638;-82
2021/12/25 13:42:19;;;;;;;7.10;6.53;;;11.60;63.20;;;;;;20725;6788;117397;-82
2021/12/25 13:44:55;;;;;;;6.60;6.10;;;11.60;62.70;;;;;;20661;6803;117585;-81
2021/12/25 13:47:33;;;;;;;6.77;6.20;;;11.40;63.50;;;;;;20759;6773;118982;-82
2021/12/25 13:50:07;;;;;;;7.18;6.68;;;11.30;63.40;;;;;;20329;6788;357523;-82
2021/12/25 13:52:49;;;;;;;7.53;6.90;;;11.60;62.50;;;;;;20677;6788;117739;-83
2021/12/25 13:55:25;;;;;;;6.17;5.63;;;11.60;62.20;;;;;;20688;6773;123624;-84
2021/12/25 13:58:08;;;;;;;7.28;6.72;;;11.50;62.50;;;;;;20451;6795;287987;-82
2021/12/25 14:00:46;;;;;;;6.23;5.73;;;11.70;62.40;;;;;;20680;6803;117952;-82
2021/12/25 14:03:20;;;;;;;6.90;6.40;;;11.80;61.70;;;;;;20530;6788;323296;-82
2021/12/25 14:05:55;;;;;;;6.53;6.03;;;11.80;61.70;;;;;;20649;6788;117176;-83
2021/12/25 14:08:31;;;;;;;6.57;5.93;;;11.80;61.50;;;;;;20695;6805;117583;-82
2021/12/25 14:11:06;;;;;;;5.87;5.47;;;11.60;62.00;;;;;;20671;6803;117376;-83
2021/12/25 14:13:45;;;;;;;7.10;6.37;;;11.40;62.50;;;;;;20757;6792;116670;-80
2021/12/25 14:16:18;;;;;;;6.93;6.33;;;11.30;63.20;;;;;;20588;6788;117930;-81
2021/12/25 14:18:53;;;;;;;5.97;5.30;;;11.20;63.40;;;;;;20734;6788;116456;-82
2021/12/25 14:21:29;;;;;;;6.95;6.45;;;11.10;63.60;;;;;;20455;6804;337970;-82
2021/12/25 14:24:05;;;;;;;6.00;5.60;;;11.40;62.90;;;;;;20734;6788;118280;-81
2021/12/25 14:26:41;;;;;;;7.35;6.75;;;11.40;62.90;;;;;;20339;6803;281084;-81